C75 weather

Marshall County Airport
Lacon, Illinois, United States

Public forecast

Using degrees Fahrenheit for public forecast. Weather courtesy of forecast.io.

Current aviation weather report (METAR) for Marshall County Airport

Retrieved 2019/12/10 23:35 UTC (16 minutes ago):

KC75 102335Z AUTO 29009G15KT 10SM OVC031 M05/M11 A3033 RMK AO2 T10521115

Closest aviation forecast (TAF) to Marshall County Airport

Closest forecast is General Wayne A. Downing Peoria International Airport, 25.5 nm (47.2 km) SSW. Retrieved 2019/12/10 18:40 UTC (5 hours ago):

TAF KPIA 101737Z 1018/1118 29010KT P6SM FEW250 FM110000 28005KT P6SM SKC FM111200 24005KT P6SM VCSH BKN040 FM111600 21006KT P6SM SCT050